Time;durP1;ratioP1;P1;durP2;ratioP2;P2;SDS_P1;SDS_P2;PMS_P1;PMS_P2;Temp;Humidity;BMP_temperature;BMP_pressure;BME280_temperature;BME280_humidity;BME280_pressure;Samples;Min_cycle;Max_cycle;Signal;HPM_P1;HPM_P2
2023/04/04 00:02:21;;;;;;;1.60;1.50;;;;;;;;;;5071012;28;20445;-75
2023/04/04 00:04:48;;;;;;;2.47;1.20;;;;;;;;;;5075282;28;20932;-75
2023/04/04 00:07:16;;;;;;;3.20;1.57;;;;;;;;;;5075628;28;20951;-75
2023/04/04 00:09:43;;;;;;;1.57;1.40;;;;;;;;;;5075519;28;20817;-75
2023/04/04 00:12:11;;;;;;;2.40;1.60;;;0.40;99.90;;;;;;5075546;28;20450;-75
2023/04/04 00:14:38;;;;;;;2.97;1.70;;;;;;;;;;5075736;28;20437;-75
2023/04/04 00:17:05;;;;;;;1.73;1.50;;;;;;;;;;5074969;28;20449;-75
2023/04/04 00:19:32;;;;;;;4.70;2.07;;;;;;;;;;5074874;28;20497;-75
2023/04/04 00:21:59;;;;;;;3.57;1.70;;;;;;;;;;5075385;28;20817;-75
2023/04/04 00:24:26;;;;;;;1.27;1.17;;;;;;;;;;5075426;28;20476;-75
2023/04/04 00:26:53;;;;;;;2.47;1.70;;;;;;;;;;5075402;28;20442;-75
2023/04/04 00:29:21;;;;;;;2.20;1.70;;;0.20;99.90;;;;;;5075305;28;20445;-76
2023/04/04 00:31:49;;;;;;;2.83;1.80;;;;;;;;;;5075180;28;20479;-75
2023/04/04 00:34:16;;;;;;;1.53;1.37;;;;;;;;;;5074102;28;20799;-75
2023/04/04 00:36:43;;;;;;;2.20;1.67;;;;;;;;;;5075197;28;21140;-74
2023/04/04 00:39:10;;;;;;;4.23;2.07;;;;;;;;;;5074877;28;20999;-76
2023/04/04 00:41:37;;;;;;;1.50;1.40;;;;;;;;;;5075109;28;20445;-75
2023/04/04 00:44:04;;;;;;;4.00;2.10;;;;;;;;;;5075005;28;20441;-75
2023/04/04 00:46:33;;;;;;;2.57;1.63;;;0.60;98.00;;;;;;5074943;28;20489;-75
2023/04/04 00:49:00;;;;;;;2.40;1.90;;;;;;;;;;5074855;28;20463;-75
2023/04/04 00:51:27;;;;;;;2.27;1.67;;;;;;;;;;5074968;28;20442;-75
2023/04/04 00:53:54;;;;;;;1.73;1.23;;;;;;;;;;5074848;28;20451;-76
2023/04/04 00:56:22;;;;;;;1.80;1.63;;;;;;;;;;5074686;28;20437;-76
2023/04/04 00:58:49;;;;;;;2.00;1.80;;;;;;;;;;5074676;28;20575;-75
2023/04/04 01:01:20;;;;;;;2.17;1.17;;;;;;;;;;5074592;28;20450;-76
2023/04/04 01:03:48;;;;;;;2.00;1.60;;;0.50;95.10;;;;;;5072690;28;20455;-75
2023/04/04 01:06:15;;;;;;;1.73;1.50;;;;;;;;;;5074279;28;20511;-75
2023/04/04 01:08:43;;;;;;;3.77;2.27;;;0.40;94.10;;;;;;5074451;28;20473;-75
2023/04/04 01:11:10;;;;;;;2.00;1.30;;;;;;;;;;5074553;28;20448;-75
2023/04/04 01:13:37;;;;;;;2.83;1.90;;;;;;;;;;5074169;28;20453;-75
2023/04/04 01:16:05;;;;;;;4.13;2.20;;;;;;;;;;5074354;28;20441;-76
2023/04/04 01:18:34;;;;;;;2.70;1.60;;;0.30;95.10;;;;;;5073078;28;20449;-75
2023/04/04 01:21:09;;;;;;;2.67;1.60;;;0.30;95.00;;;;;;5074326;28;20480;-75
2023/04/04 01:23:45;;;;;;;1.93;1.40;;;0.30;95.40;;;;;;5074277;28;20437;-75
2023/04/04 01:26:13;;;;;;;3.70;2.00;;;0.20;95.60;;;;;;5074014;28;20479;-75
2023/04/04 01:28:40;;;;;;;2.80;2.20;;;;;;;;;;5074212;28;20806;-75
2023/04/04 01:31:10;;;;;;;2.00;1.80;;;0.20;95.30;;;;;;5074075;28;20450;-75
2023/04/04 01:33:43;;;;;;;1.50;1.40;;;0.10;95.40;;;;;;5072874;28;20524;-75
2023/04/04 01:36:17;;;;;;;4.50;2.20;;;0.10;95.90;;;;;;5073987;28;20453;-75
2023/04/04 01:38:58;;;;;;;2.53;2.33;;;0.00;97.00;;;;;;5073620;28;20475;-75
2023/04/04 01:41:29;;;;;;;4.10;2.37;;;0.00;98.70;;;;;;5074017;28;20460;-76
2023/04/04 01:43:56;;;;;;;3.03;1.50;;;-0.10;98.80;;;;;;5073897;28;20453;-75
2023/04/04 01:46:23;;;;;;;2.60;1.63;;;;;;;;;;5073796;28;20503;-75
2023/04/04 01:48:50;;;;;;;3.13;1.77;;;;;;;;;;5072436;28;20453;-75
2023/04/04 01:51:18;;;;;;;2.90;1.70;;;;;;;;;;5073518;28;20445;-75
2023/04/04 01:53:45;;;;;;;3.83;2.03;;;;;;;;;;5073641;28;20446;-75
2023/04/04 01:56:12;;;;;;;2.40;2.10;;;;;;;;;;5073562;28;20438;-75
2023/04/04 01:58:40;;;;;;;2.33;2.10;;;-0.40;99.90;;;;;;5073564;28;20446;-75
2023/04/04 02:01:08;;;;;;;6.93;1.60;;;;;;;;;;5073442;28;20489;-75
2023/04/04 02:03:35;;;;;;;2.27;1.70;;;;;;;;;;5072299;28;20464;-75
2023/04/04 02:06:02;;;;;;;2.10;1.70;;;;;;;;;;5073349;28;20442;-75
2023/04/04 02:08:29;;;;;;;1.87;1.50;;;;;;;;;;5073347;28;20477;-75
2023/04/04 02:10:58;;;;;;;3.70;2.20;;;;;;;;;;5073408;28;20460;-75
2023/04/04 02:13:25;;;;;;;5.47;2.00;;;;;;;;;;5073353;28;20449;-74
2023/04/04 02:15:54;;;;;;;5.40;1.87;;;-0.50;99.90;;;;;;5072053;28;20449;-75
2023/04/04 02:18:21;;;;;;;2.20;1.43;;;;;;;;;;5071996;28;20449;-75
2023/04/04 02:20:55;;;;;;;2.87;1.70;;;-0.60;99.90;;;;;;5073205;28;20589;-75
2023/04/04 02:23:22;;;;;;;2.90;1.60;;;;;;;;;;5073158;28;20445;-75
2023/04/04 02:25:50;;;;;;;2.90;1.87;;;-0.60;99.90;;;;;;5072726;28;20446;-75
2023/04/04 02:28:17;;;;;;;1.70;1.60;;;;;;;;;;5073195;28;20454;-75
2023/04/04 02:30:44;;;;;;;3.17;2.00;;;;;;;;;;5073059;28;20442;-75
2023/04/04 02:33:12;;;;;;;2.50;1.60;;;-0.70;99.90;;;;;;5071762;28;20485;-75
2023/04/04 02:35:40;;;;;;;3.70;1.80;;;;;;;;;;5073113;28;20452;-76
2023/04/04 02:38:07;;;;;;;3.70;1.93;;;;;;;;;;5072823;28;20468;-75
2023/04/04 02:40:34;;;;;;;2.03;1.80;;;;;;;;;;5072912;28;20489;-75
2023/04/04 02:43:01;;;;;;;3.50;2.50;;;;;;;;;;5072935;28;20442;-75
2023/04/04 02:45:28;;;;;;;2.30;1.93;;;;;;;;;;5072717;28;20465;-75
2023/04/04 02:47:56;;;;;;;5.40;2.73;;;;;;;;;;5071673;28;20929;-75
2023/04/04 02:50:24;;;;;;;7.10;1.60;;;-0.80;99.90;;;;;;5072892;28;20525;-75
2023/04/04 02:52:53;;;;;;;3.47;2.47;;;;;;;;;;5072846;28;20818;-75
2023/04/04 02:55:20;;;;;;;1.70;1.60;;;;;;;;;;5072784;28;20442;-75
2023/04/04 02:57:51;;;;;;;3.33;1.80;;;-0.80;99.90;;;;;;5072756;28;20478;-75
2023/04/04 03:00:19;;;;;;;3.60;2.30;;;;;;;;;;5072706;28;21011;-75
2023/04/04 03:02:46;;;;;;;2.33;2.13;;;;;;;;;;5071635;28;20446;-75
2023/04/04 03:05:13;;;;;;;3.00;2.27;;;;;;;;;;5072742;28;20445;-75
2023/04/04 03:07:41;;;;;;;3.00;1.87;;;-0.90;99.90;;;;;;5072620;28;20476;-75
2023/04/04 03:10:08;;;;;;;2.90;2.47;;;;;;;;;;5072706;28;20461;-75
2023/04/04 03:12:36;;;;;;;2.27;1.90;;;;;;;;;;5072609;28;20480;-75
2023/04/04 03:15:04;;;;;;;1.70;1.50;;;;;;;;;;5072660;28;20441;-75
2023/04/04 03:17:31;;;;;;;5.37;2.10;;;;;;;;;;5071356;28;20503;-75
2023/04/04 03:19:58;;;;;;;3.00;1.80;;;;;;;;;;5072534;28;20492;-75
2023/04/04 03:22:25;;;;;;;3.20;2.53;;;;;;;;;;5072529;28;20979;-76
2023/04/04 03:24:53;;;;;;;3.87;1.90;;;-1.00;99.90;;;;;;5072606;28;20802;-75
2023/04/04 03:27:20;;;;;;;2.77;2.00;;;;;;;;;;5072534;28;20453;-75
2023/04/04 03:29:48;;;;;;;2.40;2.07;;;;;;;;;;5072461;28;20451;-75
2023/04/04 03:32:15;;;;;;;4.33;2.20;;;;;;;;;;5071398;28;20445;-76
2023/04/04 03:34:42;;;;;;;5.60;2.20;;;;;;;;;;5072459;28;20453;-76
2023/04/04 03:37:09;;;;;;;2.30;2.10;;;;;;;;;;5072503;28;20449;-75
2023/04/04 03:39:37;;;;;;;4.73;2.07;;;;;;;;;;5075175;28;20482;-76
2023/04/04 03:42:05;;;;;;;1.93;1.53;;;-1.20;99.90;;;;;;5076185;28;20476;-75
2023/04/04 03:44:32;;;;;;;3.47;2.23;;;;;;;;;;5076114;28;20445;-75
2023/04/04 03:47:00;;;;;;;3.70;2.67;;;;;;;;;;5076124;28;20448;-76
2023/04/04 03:49:27;;;;;;;1.87;1.70;;;;;;;;;;5074808;28;20449;-76
2023/04/04 03:51:54;;;;;;;2.50;2.10;;;;;;;;;;5076015;28;20492;-75
2023/04/04 03:54:21;;;;;;;2.77;1.80;;;;;;;;;;5075697;28;20445;-75
2023/04/04 03:56:48;;;;;;;2.20;2.00;;;;;;;;;;5075945;28;20453;-75
2023/04/04 03:59:17;;;;;;;2.67;1.87;;;-1.30;99.90;;;;;;5075858;28;20442;-75
2023/04/04 04:01:44;;;;;;;7.37;2.23;;;;;;;;;;5075480;28;21024;-76
2023/04/04 04:04:11;;;;;;;2.90;2.40;;;;;;;;;;5074619;28;20460;-75
2023/04/04 04:06:38;;;;;;;6.33;2.27;;;;;;;;;;5075509;28;20457;-76
2023/04/04 04:09:05;;;;;;;2.90;2.43;;;;;;;;;;5075651;28;20815;-76
2023/04/04 04:11:32;;;;;;;4.73;2.80;;;;;;;;;;5075665;28;20452;-76
2023/04/04 04:13:59;;;;;;;2.60;1.90;;;;;;;;;;5075701;28;20449;-76
2023/04/04 04:16:27;;;;;;;3.07;2.10;;;-1.40;99.90;;;;;;5075558;28;20441;-76
2023/04/04 04:18:54;;;;;;;3.20;1.93;;;;;;;;;;5074348;28;20453;-76
2023/04/04 04:21:21;;;;;;;7.83;2.37;;;;;;;;;;5075167;28;20500;-76
2023/04/04 04:23:49;;;;;;;3.30;2.57;;;;;;;;;;5075439;28;20457;-75
2023/04/04 04:26:16;;;;;;;3.00;2.13;;;;;;;;;;5075395;28;20444;-76
2023/04/04 04:28:43;;;;;;;5.20;1.70;;;;;;;;;;5075275;28;20449;-76
2023/04/04 04:31:10;;;;;;;3.17;2.40;;;-1.50;99.90;;;;;;5075285;28;20450;-76
2023/04/04 04:33:38;;;;;;;2.90;2.07;;;-1.50;99.90;;;;;;5074106;28;20544;-76
2023/04/04 04:36:06;;;;;;;4.87;2.77;;;-1.50;99.90;;;;;;5075189;28;20454;-76
2023/04/04 04:38:33;;;;;;;3.80;2.70;;;;;;;;;;5074990;28;21032;-76
2023/04/04 04:41:01;;;;;;;6.60;2.97;;;-1.60;99.90;;;;;;5075010;28;20497;-76
2023/04/04 04:43:28;;;;;;;3.77;2.40;;;;;;;;;;5075126;28;20456;-76
2023/04/04 04:45:55;;;;;;;2.27;2.00;;;;;;;;;;5075020;28;20445;-76
2023/04/04 04:48:22;;;;;;;3.07;2.30;;;;;;;;;;5073404;28;20457;-76
2023/04/04 04:50:50;;;;;;;6.83;2.87;;;-1.50;99.90;;;;;;5074665;28;20450;-76
2023/04/04 04:53:17;;;;;;;6.70;2.50;;;;;;;;;;5074844;28;21013;-76
2023/04/04 04:55:45;;;;;;;2.43;2.10;;;-1.40;99.90;;;;;;5074818;28;20496;-75
2023/04/04 04:58:12;;;;;;;3.60;2.10;;;;;;;;;;5074805;28;20505;-76
2023/04/04 05:00:39;;;;;;;2.97;2.20;;;;;;;;;;5074554;28;21019;-76
2023/04/04 05:03:06;;;;;;;5.20;3.20;;;;;;;;;;5073252;28;20453;-76
2023/04/04 05:05:33;;;;;;;18.40;9.10;;;;;;;;;;5074533;28;20446;-76
2023/04/04 05:08:02;;;;;;;17.33;9.83;;;-1.50;99.90;;;;;;5074482;28;20466;-75
2023/04/04 05:10:30;;;;;;;13.87;6.57;;;;;;;;;;5074606;28;20496;-76
2023/04/04 05:12:57;;;;;;;4.67;3.53;;;;;;;;;;5074472;28;20442;-76
2023/04/04 05:15:27;;;;;;;4.77;3.30;;;;;;;;;;5074391;28;20460;-76
2023/04/04 05:17:55;;;;;;;5.50;3.20;;;;;;;;;;5073090;28;20869;-75
2023/04/04 05:20:22;;;;;;;4.83;2.20;;;;;;;;;;5074254;28;20481;-76
2023/04/04 05:22:49;;;;;;;2.10;1.90;;;;;;;;;;5074239;28;20455;-76
2023/04/04 05:25:17;;;;;;;2.80;1.93;;;-1.20;99.90;;;;;;5074179;28;20438;-76
2023/04/04 05:27:47;;;;;;;3.07;2.77;;;-1.20;99.90;;;;;;5074157;28;20451;-75
2023/04/04 05:30:14;;;;;;;12.30;2.30;;;;;;;;;;5074077;28;20493;-76
2023/04/04 05:32:41;;;;;;;3.17;2.23;;;;;;;;;;5072804;28;20442;-76
2023/04/04 05:35:09;;;;;;;2.67;2.47;;;-1.00;99.90;;;;;;5073977;28;20438;-75
2023/04/04 05:37:39;;;;;;;2.40;1.90;;;;;;;;;;5073946;28;20449;-76
2023/04/04 05:40:07;;;;;;;3.50;3.20;;;-0.90;99.90;;;;;;5073586;28;20481;-76
2023/04/04 05:42:36;;;;;;;4.33;3.63;;;-0.80;99.90;;;;;;5073746;28;20473;-76
2023/04/04 05:45:03;;;;;;;3.77;2.40;;;;;;;;;;5073770;28;20548;-76
2023/04/04 05:47:30;;;;;;;2.90;2.60;;;;;;;;;;5072669;28;20477;-75
2023/04/04 05:49:57;;;;;;;3.30;2.20;;;;;;;;;;5073307;28;20442;-75
2023/04/04 05:52:24;;;;;;;3.70;3.17;;;;;;;;;;5071258;28;20960;-75
2023/04/04 05:54:51;;;;;;;2.23;2.03;;;;;;;;;;5073635;28;20450;-75
2023/04/04 05:57:18;;;;;;;3.50;2.50;;;;;;;;;;5073482;28;20936;-74
2023/04/04 05:59:48;;;;;;;2.63;2.20;;;;;;;;;;5073571;28;20464;-75
2023/04/04 06:02:15;;;;;;;3.53;2.60;;;;;;;;;;5070880;28;20490;-75
2023/04/04 06:04:44;;;;;;;4.10;2.80;;;;;;;;;;5073423;28;20441;-75
2023/04/04 06:07:11;;;;;;;3.23;2.87;;;;;;;;;;5073013;28;20466;-75
2023/04/04 06:09:39;;;;;;;3.53;2.80;;;;;;;;;;5073407;28;20446;-74
2023/04/04 06:12:07;;;;;;;3.10;2.30;;;;;;;;;;5073221;28;20545;-74
2023/04/04 06:14:35;;;;;;;3.87;2.90;;;2.40;88.90;;;;;;5073253;28;21021;-74
2023/04/04 06:17:04;;;;;;;3.27;2.90;;;2.60;86.90;;;;;;5073244;28;20450;-75
2023/04/04 06:19:31;;;;;;;4.37;2.93;;;;;;;;;;5072313;28;21004;-74
2023/04/04 06:21:59;;;;;;;3.87;2.57;;;;;;;;;;5073100;28;20493;-74
2023/04/04 06:24:26;;;;;;;4.03;2.40;;;;;;;;;;5073036;28;20460;-74
2023/04/04 06:26:53;;;;;;;5.23;2.20;;;;;;;;;;5073115;28;20520;-74
2023/04/04 06:29:20;;;;;;;3.17;2.50;;;;;;;;;;5073121;28;20446;-74
2023/04/04 06:31:48;;;;;;;3.33;2.50;;;;;;;;;;5073113;28;20450;-74
2023/04/04 06:34:16;;;;;;;4.23;2.60;;;3.80;79.30;;;;;;5071771;28;20449;-74
2023/04/04 06:36:43;;;;;;;3.83;2.33;;;;;;;;;;5072988;28;20489;-74
2023/04/04 06:39:11;;;;;;;2.60;2.40;;;;;;;;;;5072729;28;20481;-75
2023/04/04 06:41:38;;;;;;;10.10;2.40;;;;;;;;;;5072912;28;20531;-75
2023/04/04 06:44:05;;;;;;;3.93;2.30;;;;;;;;;;5072910;28;20458;-76
2023/04/04 06:46:33;;;;;;;2.10;2.00;;;;;;;;;;5072887;28;20437;-75
2023/04/04 06:49:00;;;;;;;3.00;1.40;;;;;;;;;;5071524;28;20936;-76
2023/04/04 06:51:28;;;;;;;2.60;1.60;;;3.70;74.70;;;;;;5072893;28;20446;-77
2023/04/04 06:53:56;;;;;;;2.23;1.83;;;4.10;74.70;;;;;;5072833;28;20499;-77
2023/04/04 06:56:23;;;;;;;2.27;2.07;;;;;;;;;;5072757;28;20464;-78
2023/04/04 06:58:50;;;;;;;2.20;1.90;;;;;;;;;;5072741;28;20446;-75
2023/04/04 07:01:17;;;;;;;4.03;2.00;;;;;;;;;;5072827;28;20891;-77
2023/04/04 07:03:44;;;;;;;3.73;2.07;;;;;;;;;;5071604;28;20957;-77
2023/04/04 07:06:12;;;;;;;5.63;2.03;;;;;;;;;;5072560;28;20972;-78
2023/04/04 07:08:40;;;;;;;2.77;2.00;;;;;;;;;;5072727;28;20460;-77
2023/04/04 07:11:07;;;;;;;5.73;3.40;;;;;;;;;;5072704;28;20441;-75
2023/04/04 07:13:35;;;;;;;4.77;2.30;;;;;;;;;;5076049;28;20477;-76
2023/04/04 07:16:03;;;;;;;2.30;2.07;;;;;;;;;;5076727;28;20623;-79
2023/04/04 07:18:31;;;;;;;4.30;2.47;;;;;;;;;;5075533;28;20445;-79
2023/04/04 07:20:58;;;;;;;3.73;2.50;;;;;;;;;;5076518;28;20495;-77
2023/04/04 07:23:26;;;;;;;6.30;2.87;;;;;;;;;;5076575;28;20809;-76
2023/04/04 07:25:54;;;;;;;2.37;1.80;;;;;;;;;;5076427;28;21024;-76
2023/04/04 07:28:21;;;;;;;2.63;1.80;;;;;;;;;;5076564;28;20499;-76
2023/04/04 07:30:48;;;;;;;10.83;2.77;;;;;;;;;;5078652;28;20476;-83
2023/04/04 07:33:16;;;;;;;3.77;2.80;;;;;;;;;;5073780;28;20460;-84
2023/04/04 07:35:43;;;;;;;5.00;3.60;;;;;;;;;;5076209;28;20445;-83
2023/04/04 07:38:10;;;;;;;5.63;4.90;;;;;;;;;;5076147;28;20450;-80
2023/04/04 07:40:37;;;;;;;4.27;2.00;;;;;;;;;;5076111;28;20454;-82
2023/04/04 07:43:05;;;;;;;3.13;2.03;;;;;;;;;;5076096;28;20458;-84
2023/04/04 07:45:32;;;;;;;4.30;2.20;;;;;;;;;;5075936;28;20446;-81
2023/04/04 07:48:00;;;;;;;2.27;1.77;;;5.80;53.30;;;;;;5074817;28;20449;-78
2023/04/04 07:50:28;;;;;;;3.17;2.10;;;;;;;;;;5076013;28;20449;-80
2023/04/04 07:52:57;;;;;;;2.33;1.73;;;;;;;;;;5076104;28;20445;-83
2023/04/04 07:55:24;;;;;;;3.77;1.50;;;;;;;;;;5075938;28;20445;-81
2023/04/04 07:57:52;;;;;;;3.57;2.40;;;;;;;;;;5075874;28;20456;-78
2023/04/04 08:00:24;;;;;;;2.77;2.30;;;6.20;55.40;;;;;;5075789;28;20445;-82
2023/04/04 08:02:52;;;;;;;4.30;2.60;;;;;;;;;;5068971;28;20512;-83
2023/04/04 08:05:20;;;;;;;3.83;2.13;;;;;;;;;;5065336;28;20475;-79
2023/04/04 08:07:47;;;;;;;2.43;1.97;;;;;;;;;;5074228;28;20952;-79
2023/04/04 08:10:16;;;;;;;6.03;2.00;;;;;;;;;;5073434;28;20449;-79
2023/04/04 08:12:44;;;;;;;3.73;2.13;;;;;;;;;;5077486;28;20458;-79
2023/04/04 08:15:13;;;;;;;4.93;1.87;;;6.90;61.20;;;;;;5075471;28;20479;-81
2023/04/04 08:17:42;;;;;;;2.93;2.40;;;;;;;;;;5073883;28;20445;-81
2023/04/04 08:20:09;;;;;;;5.90;2.33;;;;;;;;;;5075591;28;20519;-81
2023/04/04 08:22:37;;;;;;;4.37;2.43;;;;;;;;;;5075324;28;20501;-81
2023/04/04 08:25:04;;;;;;;2.00;1.90;;;;;;;;;;5074607;28;20462;-83
2023/04/04 08:27:31;;;;;;;2.50;1.90;;;;;;;;;;5075228;28;20449;-79
2023/04/04 08:29:59;;;;;;;5.50;1.83;;;;;;;;;;5075145;28;20472;-81
2023/04/04 08:32:26;;;;;;;10.60;5.10;;;;;;;;;;5074033;28;20485;-78
2023/04/04 08:34:54;;;;;;;7.23;3.10;;;;;;;;;;5075288;28;20453;-81
2023/04/04 08:37:21;;;;;;;8.83;2.63;;;;;;;;;;5075226;28;20456;-75
2023/04/04 08:39:48;;;;;;;3.73;2.70;;;;;;;;;;5074977;28;20568;-78
2023/04/04 08:42:16;;;;;;;5.90;2.20;;;;;;;;;;5074815;28;20493;-79
2023/04/04 08:44:45;;;;;;;3.17;2.20;;;7.40;53.30;;;;;;5074757;28;20552;-80
2023/04/04 08:47:13;;;;;;;2.80;2.40;;;;;;;;;;5073773;28;20450;-79
2023/04/04 08:49:43;;;;;;;2.00;1.53;;;8.80;56.60;;;;;;5074911;28;20442;-75
2023/04/04 08:52:12;;;;;;;12.53;6.37;;;;;;;;;;5074793;28;20532;-79
2023/04/04 08:54:40;;;;;;;21.50;12.13;;;8.00;58.40;;;;;;5080075;28;20449;-76
2023/04/04 08:57:08;;;;;;;36.00;28.60;;;;;;;;;;5074784;28;20456;-77
2023/04/04 08:59:35;;;;;;;15.53;10.87;;;;;;;;;;5074524;28;20540;-81
2023/04/04 09:02:05;;;;;;;5.23;2.40;;;;;;;;;;5074578;28;20497;-78
2023/04/04 09:04:33;;;;;;;4.37;3.00;;;;;;;;;;5073793;28;20454;-76
2023/04/04 09:07:02;;;;;;;2.80;2.07;;;8.30;55.00;;;;;;5074696;28;20818;-76
2023/04/04 09:09:31;;;;;;;4.40;2.50;;;;;;;;;;5074547;28;20450;-76
2023/04/04 09:12:00;;;;;;;3.43;2.70;;;9.10;50.40;;;;;;5074279;28;20449;-81
2023/04/04 09:14:27;;;;;;;4.27;3.00;;;;;;;;;;5074533;28;20457;-86
2023/04/04 09:16:54;;;;;;;4.77;2.63;;;;;;;;;;5074496;28;20453;-77
2023/04/04 09:19:21;;;;;;;6.60;2.70;;;;;;;;;;5073263;28;20441;-75
2023/04/04 09:21:48;;;;;;;5.30;3.90;;;;;;;;;;5074152;28;20524;-77
2023/04/04 09:24:15;;;;;;;12.80;7.83;;;;;;;;;;5074281;28;20465;-79
2023/04/04 09:26:51;;;;;;;3.37;2.10;;;8.40;59.10;;;;;;5074300;28;20453;-80
2023/04/04 09:29:19;;;;;;;39.67;32.87;;;;;;;;;;5074207;28;20453;-76
2023/04/04 09:31:48;;;;;;;97.93;52.43;;;;;;;;;;5074093;28;20479;-76
2023/04/04 09:34:15;;;;;;;8.23;4.57;;;;;;;;;;5072751;28;20495;-79
2023/04/04 09:36:42;;;;;;;5.27;2.70;;;;;;;;;;5074072;28;20445;-76
2023/04/04 09:39:09;;;;;;;4.17;2.80;;;;;;;;;;5073727;28;20474;-76
2023/04/04 09:41:38;;;;;;;5.07;2.40;;;;;;;;;;5073918;28;20830;-77
2023/04/04 09:44:07;;;;;;;3.73;2.30;;;10.10;46.10;;;;;;5073910;28;20449;-76
2023/04/04 09:46:35;;;;;;;7.10;3.90;;;;;;;;;;5073711;28;20470;-81
2023/04/04 09:49:03;;;;;;;3.60;2.70;;;;;;;;;;5072344;28;20974;-81
2023/04/04 09:51:35;;;;;;;5.20;2.90;;;10.90;55.40;;;;;;5073679;28;20449;-76
2023/04/04 09:54:05;;;;;;;9.60;3.27;;;;;;;;;;5073596;28;20461;-82
2023/04/04 09:56:33;;;;;;;5.20;2.80;;;10.00;44.00;;;;;;5073650;28;20450;-78
2023/04/04 09:59:01;;;;;;;3.97;2.70;;;;;;;;;;5073592;28;20454;-81
2023/04/04 10:01:29;;;;;;;3.93;2.33;;;9.50;46.40;;;;;;5073435;28;20453;-75
2023/04/04 10:03:58;;;;;;;2.03;1.87;;;;;;;;;;5072209;28;20445;-76
2023/04/04 10:06:25;;;;;;;4.23;2.30;;;;;;;;;;5073444;28;20441;-82
2023/04/04 10:08:53;;;;;;;3.43;2.30;;;;;;;;;;5073429;28;20449;-79
2023/04/04 10:11:29;;;;;;;2.90;2.10;;;9.90;40.40;;;;;;5073374;28;20446;-78
2023/04/04 10:13:58;;;;;;;5.37;2.73;;;10.50;35.70;;;;;;5072704;28;20527;-76
2023/04/04 10:16:25;;;;;;;3.53;2.80;;;10.40;35.90;;;;;;5073339;28;20445;-80
2023/04/04 10:18:53;;;;;;;6.20;2.60;;;10.80;42.10;;;;;;5072144;28;20446;-81
2023/04/04 10:21:20;;;;;;;2.60;2.30;;;;;;;;;;5073240;28;20450;-76
2023/04/04 10:23:49;;;;;;;6.40;4.93;;;11.50;45.40;;;;;;5073453;28;20558;-76
2023/04/04 10:26:16;;;;;;;2.20;2.00;;;;;;;;;;5073290;28;20478;-76
2023/04/04 10:28:44;;;;;;;4.13;2.73;;;;;;;;;;5073268;28;20449;-76
2023/04/04 10:31:16;;;;;;;194.50;82.20;;;;;;;;;;5073067;28;20524;-78
2023/04/04 10:33:50;;;;;;;65.93;35.93;;;11.20;66.60;;;;;;5072094;28;20893;-75
2023/04/04 10:36:23;;;;;;;191.67;78.57;;;12.10;58.80;;;;;;5073185;28;20441;-75
2023/04/04 10:38:58;;;;;;;9.30;3.73;;;11.20;43.80;;;;;;5072982;28;20842;-76
2023/04/04 10:41:25;;;;;;;7.50;2.60;;;;;;;;;;5073042;28;20445;-76
2023/04/04 10:43:56;;;;;;;3.70;2.20;;;11.50;34.20;;;;;;5072983;28;20535;-77
2023/04/04 10:46:29;;;;;;;4.67;3.50;;;;;;;;;;5072913;28;20449;-80
2023/04/04 10:48:57;;;;;;;2.40;1.93;;;10.50;41.50;;;;;;5071502;28;20814;-79
2023/04/04 10:51:26;;;;;;;4.10;2.60;;;;;;;;;;5072773;28;20456;-78
2023/04/04 10:53:53;;;;;;;2.90;2.60;;;;;;;;;;5072981;28;20450;-78
2023/04/04 10:56:21;;;;;;;2.63;2.43;;;;;;;;;;5072992;28;20449;-79
2023/04/04 10:58:49;;;;;;;4.37;2.90;;;10.30;39.90;;;;;;5072828;28;20449;-77
2023/04/04 11:01:19;;;;;;;4.20;2.50;;;;;;;;;;5073667;28;20450;-79
2023/04/04 11:04:21;;;;;;;2.50;2.17;;;11.40;31.10;;;;;;5071311;28;20501;-82
2023/04/04 11:07:15;;;;;;;3.90;2.40;;;10.00;35.10;;;;;;5072415;28;20441;-85
2023/04/04 11:09:49;;;;;;;7.03;3.40;;;;;;;;;;5072785;28;20959;-81
2023/04/04 11:12:19;;;;;;;3.20;2.43;;;;;;;;;;5072673;28;20454;-79
2023/04/04 11:14:55;;;;;;;3.50;2.87;;;;;;;;;;5072655;28;20446;-80
2023/04/04 11:17:53;;;;;;;7.93;5.33;;;11.20;49.80;;;;;;5071579;28;20449;-79
2023/04/04 11:20:22;;;;;;;3.83;2.10;;;10.80;42.10;;;;;;5071405;28;20449;-79
2023/04/04 11:22:53;;;;;;;6.47;2.80;;;;;;;;;;5072422;28;20492;-82
2023/04/04 11:25:29;;;;;;;3.00;2.70;;;;;;;;;;5072684;28;20441;-84
2023/04/04 11:27:56;;;;;;;8.50;5.57;;;;;;;;;;5072190;28;20459;-77
2023/04/04 11:30:24;;;;;;;4.70;2.23;;;;;;;;;;5060410;28;20486;-77
2023/04/04 11:32:52;;;;;;;4.83;2.50;;;12.20;48.30;;;;;;5072630;28;20525;-79
2023/04/04 11:35:19;;;;;;;4.63;3.23;;;;;;;;;;5072372;28;20481;-79
2023/04/04 11:38:01;;;;;;;3.43;2.73;;;;;;;;;;5072529;28;20449;-79
2023/04/04 11:40:38;;;;;;;6.27;3.20;;;;;;;;;;5072236;28;20546;-82
2023/04/04 11:43:10;;;;;;;2.83;2.10;;;11.70;39.80;;;;;;5072475;28;20524;-81
2023/04/04 11:45:38;;;;;;;5.07;2.33;;;;;;;;;;5072345;28;20936;-81
2023/04/04 11:48:06;;;;;;;8.30;7.33;;;;;;;;;;5071240;28;20911;-77
2023/04/04 11:50:37;;;;;;;5.43;4.93;;;;;;;;;;5072329;28;20936;-75
2023/04/04 11:53:10;;;;;;;3.93;2.70;;;11.80;52.10;;;;;;5072325;28;20456;-76
2023/04/04 11:55:41;;;;;;;3.03;2.70;;;;;;;;;;5072286;28;20450;-74
2023/04/04 11:58:11;;;;;;;3.30;2.50;;;;;;;;;;5071771;28;20457;-74
2023/04/04 12:00:40;;;;;;;3.50;2.40;;;;;;;;;;5075451;28;20453;-79
2023/04/04 12:03:09;;;;;;;3.20;2.53;;;11.80;41.00;;;;;;5074757;28;20492;-77
2023/04/04 12:05:37;;;;;;;3.83;2.23;;;;;;;;;;5075937;28;20457;-76
2023/04/04 12:08:06;;;;;;;4.20;3.17;;;10.00;36.20;;;;;;5076208;28;20821;-76
2023/04/04 12:10:36;;;;;;;4.87;2.87;;;;;;;;;;5056846;28;20491;-76
2023/04/04 12:13:05;;;;;;;144.47;64.60;;;;;;;;;;5075769;28;20456;-76
2023/04/04 12:15:34;;;;;;;38.30;34.20;;;11.10;53.30;;;;;;5075787;28;21066;-75
2023/04/04 12:18:01;;;;;;;3.50;2.57;;;;;;;;;;5074457;28;20454;-75
2023/04/04 12:20:29;;;;;;;2.53;2.23;;;;;;;;;;5075563;28;20446;-75
2023/04/04 12:22:56;;;;;;;6.10;3.07;;;;;;;;;;5075417;28;20488;-76
2023/04/04 12:25:27;;;;;;;6.30;3.93;;;;;;;;;;5077090;28;20947;-80
2023/04/04 12:27:56;;;;;;;5.20;3.47;;;;;;;;;;5075217;28;20537;-85
2023/04/04 12:30:23;;;;;;;4.47;2.53;;;;;;;;;;5075437;28;20512;-76
2023/04/04 12:32:51;;;;;;;4.00;2.80;;;10.00;42.00;;;;;;5074145;28;20471;-77
2023/04/04 12:35:18;;;;;;;3.87;3.20;;;;;;;;;;5075196;28;20461;-76
2023/04/04 12:37:58;;;;;;;9.90;8.13;;;;;;;;;;5075249;28;20495;-77
2023/04/04 12:40:29;;;;;;;72.50;45.20;;;;;;;;;;5075041;28;20477;-82
2023/04/04 12:42:59;;;;;;;3.23;2.23;;;10.90;33.30;;;;;;5075171;28;20497;-81
2023/04/04 12:45:28;;;;;;;5.10;2.63;;;;;;;;;;5075058;28;20445;-80
2023/04/04 12:47:56;;;;;;;4.20;2.80;;;;;;;;;;5071177;28;20450;-81
2023/04/04 12:50:25;;;;;;;3.20;2.70;;;10.50;30.10;;;;;;5075012;28;20460;-81
2023/04/04 12:52:52;;;;;;;4.67;2.73;;;;;;;;;;5075059;28;20453;-81
2023/04/04 12:55:22;;;;;;;2.27;2.07;;;10.90;34.50;;;;;;5074868;28;21014;-78
2023/04/04 12:57:49;;;;;;;4.63;2.00;;;;;;;;;;5074890;28;20449;-79
2023/04/04 13:00:20;;;;;;;2.43;2.20;;;10.70;37.40;;;;;;5074725;28;20456;-77
2023/04/04 13:02:50;;;;;;;2.30;2.10;;;11.30;34.00;;;;;;5073486;28;20539;-82
2023/04/04 13:05:20;;;;;;;4.80;2.37;;;;;;;;;;5074413;28;20441;-81
2023/04/04 13:07:47;;;;;;;3.07;2.13;;;;;;;;;;5074646;28;20456;-75
2023/04/04 13:10:16;;;;;;;114.83;59.93;;;12.20;39.10;;;;;;5074355;28;20948;-78
2023/04/04 13:12:55;;;;;;;4.60;2.83;;;;;;;;;;5074647;28;20449;-76
2023/04/04 13:15:24;;;;;;;3.40;2.23;;;;;;;;;;5074528;28;20481;-77
2023/04/04 13:17:51;;;;;;;4.13;2.70;;;;;;;;;;5073587;28;20457;-77
2023/04/04 13:20:20;;;;;;;2.67;2.43;;;12.30;39.70;;;;;;5074635;28;20844;-78
2023/04/04 13:22:47;;;;;;;4.33;2.83;;;;;;;;;;5074390;28;20485;-77
2023/04/04 13:25:14;;;;;;;4.33;3.07;;;;;;;;;;5074321;28;20847;-88
2023/04/04 13:27:41;;;;;;;3.67;2.87;;;;;;;;;;5072501;28;20945;-75
2023/04/04 13:30:09;;;;;;;4.73;2.63;;;;;;;;;;5074139;28;20450;-77
2023/04/04 13:32:37;;;;;;;3.40;2.40;;;11.80;39.90;;;;;;5072822;28;20940;-77
2023/04/04 13:35:04;;;;;;;4.87;3.30;;;;;;;;;;5073854;28;20469;-76
2023/04/04 13:37:31;;;;;;;3.23;2.70;;;;;;;;;;5074100;28;20461;-77
2023/04/04 13:39:58;;;;;;;4.77;2.47;;;;;;;;;;5073881;28;20484;-79
2023/04/04 13:42:29;;;;;;;12.30;3.80;;;;;;;;;;5074112;28;20453;-79
2023/04/04 13:44:57;;;;;;;3.93;2.43;;;;;;;;;;5073743;28;20941;-78
2023/04/04 13:47:26;;;;;;;3.90;2.80;;;;;;;;;;5072725;28;20488;-78
2023/04/04 13:49:54;;;;;;;4.97;3.23;;;;;;;;;;5073721;28;20450;-83
2023/04/04 13:52:22;;;;;;;3.47;3.17;;;;;;;;;;5084072;28;20441;-83
2023/04/04 13:54:49;;;;;;;4.30;2.90;;;;;;;;;;5094033;28;20452;-81
2023/04/04 13:57:16;;;;;;;8.17;6.13;;;;;;;;;;5093929;28;20445;-81
2023/04/04 13:59:43;;;;;;;34.67;31.40;;;;;;;;;;5094001;28;20448;-79
2023/04/04 14:02:11;;;;;;;3.60;2.50;;;;;;;;;;5093251;28;20448;-80
2023/04/04 14:04:38;;;;;;;3.20;2.43;;;;;;;;;;5093459;28;20583;-78
2023/04/04 14:07:06;;;;;;;3.83;2.77;;;12.00;40.80;;;;;;5093951;28;20808;-79
2023/04/04 14:09:33;;;;;;;8.67;3.77;;;;;;;;;;5093925;28;20448;-79
2023/04/04 14:12:00;;;;;;;3.33;3.03;;;;;;;;;;5093662;28;20444;-79
2023/04/04 14:14:27;;;;;;;4.33;2.90;;;;;;;;;;5093652;28;20456;-79
2023/04/04 14:16:54;;;;;;;4.43;3.70;;;;;;;;;;5093771;28;20448;-78